sensor_id;sensor_type;location;lat;lon;timestamp;P1;durP1;ratioP1;P2;durP2;ratioP2
77260;SDS011;66297;52.206;21.016;2023-01-10T00:00:17;19.98;;;13.13;;
77260;SDS011;66297;52.206;21.016;2023-01-10T00:02:45;17.20;;;10.82;;
77260;SDS011;66297;52.206;21.016;2023-01-10T00:05:13;23.48;;;12.25;;
77260;SDS011;66297;52.206;21.016;2023-01-10T00:07:38;20.85;;;11.50;;
77260;SDS011;66297;52.206;21.016;2023-01-10T00:10:04;20.33;;;11.35;;
77260;SDS011;66297;52.206;21.016;2023-01-10T00:12:32;18.77;;;9.55;;
77260;SDS011;66297;52.206;21.016;2023-01-10T00:15:16;24.48;;;13.07;;
77260;SDS011;66297;52.206;21.016;2023-01-10T00:17:41;19.50;;;10.35;;
77260;SDS011;66297;52.206;21.016;2023-01-10T00:20:07;24.95;;;12.27;;
77260;SDS011;66297;52.206;21.016;2023-01-10T00:22:33;23.52;;;11.60;;
77260;SDS011;66297;52.206;21.016;2023-01-10T00:24:58;23.45;;;11.52;;
77260;SDS011;66297;52.206;21.016;2023-01-10T00:27:23;23.98;;;12.10;;
77260;SDS011;66297;52.206;21.016;2023-01-10T00:29:51;22.83;;;11.60;;
77260;SDS011;66297;52.206;21.016;2023-01-10T00:32:17;23.83;;;11.45;;
77260;SDS011;66297;52.206;21.016;2023-01-10T00:34:43;19.27;;;9.50;;
77260;SDS011;66297;52.206;21.016;2023-01-10T00:37:09;15.55;;;8.25;;
77260;SDS011;66297;52.206;21.016;2023-01-10T00:39:36;21.85;;;11.13;;
77260;SDS011;66297;52.206;21.016;2023-01-10T00:42:02;20.55;;;10.68;;
77260;SDS011;66297;52.206;21.016;2023-01-10T00:44:46;27.88;;;14.73;;
77260;SDS011;66297;52.206;21.016;2023-01-10T00:47:12;16.63;;;8.98;;
77260;SDS011;66297;52.206;21.016;2023-01-10T00:49:37;24.85;;;11.23;;
77260;SDS011;66297;52.206;21.016;2023-01-10T00:52:03;25.55;;;13.30;;
77260;SDS011;66297;52.206;21.016;2023-01-10T00:54:29;21.60;;;10.82;;
77260;SDS011;66297;52.206;21.016;2023-01-10T00:56:57;26.55;;;13.45;;
77260;SDS011;66297;52.206;21.016;2023-01-10T00:59:22;26.20;;;13.65;;
77260;SDS011;66297;52.206;21.016;2023-01-10T01:01:50;16.85;;;8.82;;
77260;SDS011;66297;52.206;21.016;2023-01-10T01:04:16;22.73;;;12.05;;
77260;SDS011;66297;52.206;21.016;2023-01-10T01:06:45;21.77;;;11.68;;
77260;SDS011;66297;52.206;21.016;2023-01-10T01:09:14;23.80;;;13.85;;
77260;SDS011;66297;52.206;21.016;2023-01-10T01:11:39;24.52;;;12.50;;
77260;SDS011;66297;52.206;21.016;2023-01-10T01:14:05;22.35;;;10.07;;
77260;SDS011;66297;52.206;21.016;2023-01-10T01:16:30;21.88;;;10.48;;
77260;SDS011;66297;52.206;21.016;2023-01-10T01:18:56;14.05;;;8.05;;
77260;SDS011;66297;52.206;21.016;2023-01-10T01:21:22;24.33;;;11.85;;
77260;SDS011;66297;52.206;21.016;2023-01-10T01:23:52;20.67;;;11.63;;
77260;SDS011;66297;52.206;21.016;2023-01-10T01:26:20;18.70;;;8.57;;
77260;SDS011;66297;52.206;21.016;2023-01-10T01:28:49;23.20;;;10.25;;
77260;SDS011;66297;52.206;21.016;2023-01-10T01:31:15;25.40;;;12.98;;
77260;SDS011;66297;52.206;21.016;2023-01-10T01:33:41;17.20;;;8.40;;
77260;SDS011;66297;52.206;21.016;2023-01-10T01:36:07;23.30;;;12.57;;
77260;SDS011;66297;52.206;21.016;2023-01-10T01:38:34;22.17;;;12.25;;
77260;SDS011;66297;52.206;21.016;2023-01-10T01:41:00;21.25;;;10.10;;
77260;SDS011;66297;52.206;21.016;2023-01-10T01:43:27;25.63;;;13.00;;
77260;SDS011;66297;52.206;21.016;2023-01-10T01:45:58;28.95;;;15.68;;
77260;SDS011;66297;52.206;21.016;2023-01-10T01:48:30;25.58;;;13.75;;
77260;SDS011;66297;52.206;21.016;2023-01-10T01:53:43;27.95;;;15.18;;
77260;SDS011;66297;52.206;21.016;2023-01-10T01:56:21;28.13;;;15.07;;
77260;SDS011;66297;52.206;21.016;2023-01-10T01:58:53;28.02;;;13.98;;
77260;SDS011;66297;52.206;21.016;2023-01-10T02:01:25;26.08;;;13.27;;
77260;SDS011;66297;52.206;21.016;2023-01-10T02:03:53;25.55;;;13.85;;
77260;SDS011;66297;52.206;21.016;2023-01-10T02:06:22;27.67;;;14.40;;
77260;SDS011;66297;52.206;21.016;2023-01-10T02:08:55;26.38;;;14.60;;
77260;SDS011;66297;52.206;21.016;2023-01-10T02:11:30;30.35;;;14.27;;
77260;SDS011;66297;52.206;21.016;2023-01-10T02:13:55;27.55;;;13.00;;
77260;SDS011;66297;52.206;21.016;2023-01-10T02:16:21;26.15;;;13.43;;
77260;SDS011;66297;52.206;21.016;2023-01-10T02:18:49;27.25;;;15.95;;
77260;SDS011;66297;52.206;21.016;2023-01-10T02:40:23;25.73;;;14.18;;
77260;SDS011;66297;52.206;21.016;2023-01-10T02:48:26;28.33;;;15.77;;
77260;SDS011;66297;52.206;21.016;2023-01-10T02:53:33;27.40;;;15.25;;
77260;SDS011;66297;52.206;21.016;2023-01-10T03:12:36;27.52;;;14.68;;
77260;SDS011;66297;52.206;21.016;2023-01-10T03:15:06;26.17;;;14.68;;
77260;SDS011;66297;52.206;21.016;2023-01-10T03:17:32;23.27;;;13.07;;
77260;SDS011;66297;52.206;21.016;2023-01-10T03:20:03;22.90;;;12.48;;
77260;SDS011;66297;52.206;21.016;2023-01-10T03:22:30;25.48;;;13.65;;
77260;SDS011;66297;52.206;21.016;2023-01-10T03:25:02;21.02;;;10.85;;
77260;SDS011;66297;52.206;21.016;2023-01-10T03:32:59;25.85;;;13.98;;
77260;SDS011;66297;52.206;21.016;2023-01-10T03:35:38;23.08;;;12.38;;
77260;SDS011;66297;52.206;21.016;2023-01-10T03:38:29;23.30;;;14.95;;
77260;SDS011;66297;52.206;21.016;2023-01-10T03:44:32;23.23;;;13.35;;
77260;SDS011;66297;52.206;21.016;2023-01-10T03:47:29;24.40;;;12.27;;
77260;SDS011;66297;52.206;21.016;2023-01-10T03:50:17;22.75;;;12.48;;
77260;SDS011;66297;52.206;21.016;2023-01-10T03:52:48;24.38;;;14.00;;
77260;SDS011;66297;52.206;21.016;2023-01-10T03:55:19;22.63;;;11.25;;
77260;SDS011;66297;52.206;21.016;2023-01-10T03:57:46;20.63;;;10.80;;
77260;SDS011;66297;52.206;21.016;2023-01-10T04:00:13;22.30;;;12.43;;
77260;SDS011;66297;52.206;21.016;2023-01-10T04:02:40;20.33;;;11.88;;
77260;SDS011;66297;52.206;21.016;2023-01-10T04:05:08;17.92;;;9.38;;
77260;SDS011;66297;52.206;21.016;2023-01-10T04:07:33;21.00;;;12.52;;
77260;SDS011;66297;52.206;21.016;2023-01-10T04:09:59;21.58;;;13.68;;
77260;SDS011;66297;52.206;21.016;2023-01-10T04:12:24;19.92;;;11.85;;
77260;SDS011;66297;52.206;21.016;2023-01-10T04:14:49;20.60;;;11.93;;
77260;SDS011;66297;52.206;21.016;2023-01-10T04:17:15;19.23;;;11.75;;
77260;SDS011;66297;52.206;21.016;2023-01-10T04:19:44;20.52;;;12.98;;
77260;SDS011;66297;52.206;21.016;2023-01-10T04:22:10;22.80;;;12.88;;
77260;SDS011;66297;52.206;21.016;2023-01-10T04:24:38;19.58;;;11.80;;
77260;SDS011;66297;52.206;21.016;2023-01-10T04:27:04;20.85;;;12.85;;
77260;SDS011;66297;52.206;21.016;2023-01-10T04:29:29;20.15;;;12.52;;
77260;SDS011;66297;52.206;21.016;2023-01-10T04:31:55;21.45;;;13.52;;
77260;SDS011;66297;52.206;21.016;2023-01-10T04:34:25;21.50;;;12.00;;
77260;SDS011;66297;52.206;21.016;2023-01-10T04:36:50;22.83;;;12.98;;
77260;SDS011;66297;52.206;21.016;2023-01-10T04:39:16;22.20;;;14.55;;
77260;SDS011;66297;52.206;21.016;2023-01-10T04:41:41;24.92;;;13.90;;
77260;SDS011;66297;52.206;21.016;2023-01-10T04:44:07;17.67;;;9.88;;
77260;SDS011;66297;52.206;21.016;2023-01-10T04:46:33;24.40;;;14.48;;
77260;SDS011;66297;52.206;21.016;2023-01-10T04:48:58;22.13;;;13.38;;
77260;SDS011;66297;52.206;21.016;2023-01-10T04:51:24;24.08;;;13.27;;
77260;SDS011;66297;52.206;21.016;2023-01-10T04:53:52;23.45;;;12.55;;
77260;SDS011;66297;52.206;21.016;2023-01-10T04:56:19;26.88;;;12.68;;
77260;SDS011;66297;52.206;21.016;2023-01-10T04:58:46;21.63;;;13.60;;
77260;SDS011;66297;52.206;21.016;2023-01-10T05:01:15;21.88;;;12.45;;
77260;SDS011;66297;52.206;21.016;2023-01-10T05:03:45;22.30;;;12.27;;
77260;SDS011;66297;52.206;21.016;2023-01-10T05:06:15;23.08;;;11.48;;
77260;SDS011;66297;52.206;21.016;2023-01-10T05:08:41;23.73;;;13.70;;
77260;SDS011;66297;52.206;21.016;2023-01-10T05:11:09;22.00;;;10.98;;
77260;SDS011;66297;52.206;21.016;2023-01-10T05:13:39;23.15;;;12.68;;
77260;SDS011;66297;52.206;21.016;2023-01-10T05:16:05;21.65;;;12.95;;
77260;SDS011;66297;52.206;21.016;2023-01-10T05:18:31;21.52;;;13.48;;
77260;SDS011;66297;52.206;21.016;2023-01-10T05:21:07;23.55;;;13.30;;
77260;SDS011;66297;52.206;21.016;2023-01-10T05:23:34;21.00;;;12.60;;
77260;SDS011;66297;52.206;21.016;2023-01-10T05:26:07;20.67;;;12.82;;
77260;SDS011;66297;52.206;21.016;2023-01-10T05:28:34;18.92;;;11.25;;
77260;SDS011;66297;52.206;21.016;2023-01-10T05:30:59;22.13;;;13.05;;
77260;SDS011;66297;52.206;21.016;2023-01-10T05:33:25;21.30;;;13.27;;
77260;SDS011;66297;52.206;21.016;2023-01-10T05:35:50;19.00;;;12.18;;
77260;SDS011;66297;52.206;21.016;2023-01-10T05:38:18;16.20;;;10.27;;
77260;SDS011;66297;52.206;21.016;2023-01-10T05:40:43;19.95;;;10.88;;
77260;SDS011;66297;52.206;21.016;2023-01-10T05:43:09;23.33;;;16.45;;
77260;SDS011;66297;52.206;21.016;2023-01-10T05:45:36;20.23;;;11.82;;
77260;SDS011;66297;52.206;21.016;2023-01-10T05:48:02;19.88;;;13.18;;
77260;SDS011;66297;52.206;21.016;2023-01-10T05:50:27;21.00;;;12.43;;
77260;SDS011;66297;52.206;21.016;2023-01-10T05:52:53;23.10;;;13.27;;
77260;SDS011;66297;52.206;21.016;2023-01-10T05:55:22;21.40;;;13.48;;
77260;SDS011;66297;52.206;21.016;2023-01-10T05:57:47;22.05;;;12.15;;
77260;SDS011;66297;52.206;21.016;2023-01-10T06:00:13;21.65;;;12.52;;
77260;SDS011;66297;52.206;21.016;2023-01-10T06:02:39;23.42;;;14.70;;
77260;SDS011;66297;52.206;21.016;2023-01-10T06:05:06;23.02;;;13.05;;
77260;SDS011;66297;52.206;21.016;2023-01-10T06:07:32;23.98;;;14.30;;
77260;SDS011;66297;52.206;21.016;2023-01-10T06:10:00;22.08;;;13.27;;
77260;SDS011;66297;52.206;21.016;2023-01-10T06:12:25;22.55;;;12.82;;
77260;SDS011;66297;52.206;21.016;2023-01-10T06:14:53;22.58;;;13.50;;
77260;SDS011;66297;52.206;21.016;2023-01-10T06:17:21;23.98;;;12.82;;
77260;SDS011;66297;52.206;21.016;2023-01-10T06:19:46;22.60;;;12.40;;
77260;SDS011;66297;52.206;21.016;2023-01-10T06:22:16;23.42;;;12.13;;
77260;SDS011;66297;52.206;21.016;2023-01-10T06:24:44;21.02;;;11.80;;
77260;SDS011;66297;52.206;21.016;2023-01-10T06:27:12;19.98;;;12.00;;
77260;SDS011;66297;52.206;21.016;2023-01-10T06:29:37;24.83;;;14.02;;
77260;SDS011;66297;52.206;21.016;2023-01-10T06:32:03;22.83;;;13.02;;
77260;SDS011;66297;52.206;21.016;2023-01-10T06:34:28;22.58;;;12.00;;
77260;SDS011;66297;52.206;21.016;2023-01-10T06:36:54;21.85;;;12.13;;
77260;SDS011;66297;52.206;21.016;2023-01-10T06:39:19;23.35;;;12.95;;
77260;SDS011;66297;52.206;21.016;2023-01-10T06:41:45;19.92;;;11.18;;
77260;SDS011;66297;52.206;21.016;2023-01-10T06:44:10;26.60;;;14.60;;
77260;SDS011;66297;52.206;21.016;2023-01-10T06:46:35;25.70;;;15.57;;
77260;SDS011;66297;52.206;21.016;2023-01-10T06:49:01;22.27;;;12.07;;
77260;SDS011;66297;52.206;21.016;2023-01-10T06:51:26;23.67;;;12.20;;
77260;SDS011;66297;52.206;21.016;2023-01-10T06:53:54;20.85;;;12.20;;
77260;SDS011;66297;52.206;21.016;2023-01-10T06:56:20;24.55;;;14.52;;
77260;SDS011;66297;52.206;21.016;2023-01-10T06:58:47;22.02;;;11.82;;
77260;SDS011;66297;52.206;21.016;2023-01-10T07:01:14;20.00;;;12.88;;
77260;SDS011;66297;52.206;21.016;2023-01-10T07:03:41;26.80;;;17.02;;
77260;SDS011;66297;52.206;21.016;2023-01-10T07:06:07;24.73;;;12.48;;
77260;SDS011;66297;52.206;21.016;2023-01-10T07:08:36;22.90;;;15.27;;
77260;SDS011;66297;52.206;21.016;2023-01-10T07:11:04;22.27;;;12.65;;
77260;SDS011;66297;52.206;21.016;2023-01-10T07:13:30;21.35;;;15.48;;
77260;SDS011;66297;52.206;21.016;2023-01-10T07:16:06;21.77;;;13.38;;
77260;SDS011;66297;52.206;21.016;2023-01-10T07:18:36;21.20;;;12.57;;
77260;SDS011;66297;52.206;21.016;2023-01-10T07:21:04;19.83;;;13.18;;
77260;SDS011;66297;52.206;21.016;2023-01-10T07:23:33;20.65;;;13.05;;
77260;SDS011;66297;52.206;21.016;2023-01-10T07:26:03;20.20;;;11.68;;
77260;SDS011;66297;52.206;21.016;2023-01-10T07:28:32;18.00;;;10.63;;
77260;SDS011;66297;52.206;21.016;2023-01-10T07:31:01;17.00;;;10.52;;
77260;SDS011;66297;52.206;21.016;2023-01-10T07:33:29;18.50;;;9.57;;
77260;SDS011;66297;52.206;21.016;2023-01-10T07:35:58;17.50;;;10.50;;
77260;SDS011;66297;52.206;21.016;2023-01-10T07:38:27;18.23;;;12.63;;
77260;SDS011;66297;52.206;21.016;2023-01-10T07:40:55;19.23;;;10.05;;
77260;SDS011;66297;52.206;21.016;2023-01-10T07:43:23;20.33;;;12.73;;
77260;SDS011;66297;52.206;21.016;2023-01-10T07:45:50;18.40;;;11.10;;
77260;SDS011;66297;52.206;21.016;2023-01-10T07:48:15;20.13;;;12.05;;
77260;SDS011;66297;52.206;21.016;2023-01-10T07:50:43;16.88;;;10.40;;
77260;SDS011;66297;52.206;21.016;2023-01-10T07:53:11;21.15;;;12.63;;
77260;SDS011;66297;52.206;21.016;2023-01-10T07:55:39;18.02;;;10.50;;
77260;SDS011;66297;52.206;21.016;2023-01-10T07:58:05;19.40;;;12.52;;
77260;SDS011;66297;52.206;21.016;2023-01-10T08:00:32;21.60;;;14.52;;
77260;SDS011;66297;52.206;21.016;2023-01-10T08:05:26;21.85;;;11.25;;
77260;SDS011;66297;52.206;21.016;2023-01-10T08:07:54;19.98;;;12.82;;
77260;SDS011;66297;52.206;21.016;2023-01-10T08:10:23;18.35;;;11.38;;
77260;SDS011;66297;52.206;21.016;2023-01-10T08:12:51;20.65;;;16.55;;
77260;SDS011;66297;52.206;21.016;2023-01-10T08:15:17;19.92;;;13.10;;
77260;SDS011;66297;52.206;21.016;2023-01-10T08:17:42;20.88;;;13.18;;
77260;SDS011;66297;52.206;21.016;2023-01-10T08:20:08;19.08;;;11.82;;
77260;SDS011;66297;52.206;21.016;2023-01-10T08:22:37;19.45;;;12.93;;
77260;SDS011;66297;52.206;21.016;2023-01-10T08:25:03;21.77;;;14.32;;
77260;SDS011;66297;52.206;21.016;2023-01-10T08:27:29;19.52;;;13.95;;
77260;SDS011;66297;52.206;21.016;2023-01-10T08:29:56;19.90;;;11.85;;
77260;SDS011;66297;52.206;21.016;2023-01-10T08:32:22;18.42;;;11.90;;
77260;SDS011;66297;52.206;21.016;2023-01-10T08:34:47;18.30;;;13.82;;
77260;SDS011;66297;52.206;21.016;2023-01-10T08:37:13;21.52;;;12.43;;
77260;SDS011;66297;52.206;21.016;2023-01-10T08:39:38;19.63;;;11.38;;
77260;SDS011;66297;52.206;21.016;2023-01-10T08:42:04;16.77;;;12.77;;
77260;SDS011;66297;52.206;21.016;2023-01-10T08:44:30;18.02;;;11.13;;
77260;SDS011;66297;52.206;21.016;2023-01-10T08:46:55;17.13;;;10.23;;
77260;SDS011;66297;52.206;21.016;2023-01-10T08:49:21;19.33;;;13.63;;
77260;SDS011;66297;52.206;21.016;2023-01-10T08:51:47;16.85;;;11.38;;
77260;SDS011;66297;52.206;21.016;2023-01-10T08:54:13;16.83;;;10.45;;
77260;SDS011;66297;52.206;21.016;2023-01-10T08:56:38;17.98;;;13.20;;
77260;SDS011;66297;52.206;21.016;2023-01-10T08:59:04;15.95;;;9.95;;
77260;SDS011;66297;52.206;21.016;2023-01-10T09:01:32;18.65;;;14.60;;
77260;SDS011;66297;52.206;21.016;2023-01-10T09:04:01;18.13;;;10.27;;
77260;SDS011;66297;52.206;21.016;2023-01-10T09:06:29;15.27;;;9.75;;
77260;SDS011;66297;52.206;21.016;2023-01-10T09:08:54;14.57;;;10.57;;
77260;SDS011;66297;52.206;21.016;2023-01-10T09:11:20;13.70;;;8.77;;
77260;SDS011;66297;52.206;21.016;2023-01-10T09:13:49;18.13;;;12.05;;
77260;SDS011;66297;52.206;21.016;2023-01-10T09:16:17;15.60;;;11.57;;
77260;SDS011;66297;52.206;21.016;2023-01-10T09:18:43;13.20;;;8.85;;
77260;SDS011;66297;52.206;21.016;2023-01-10T09:21:11;18.77;;;11.63;;
77260;SDS011;66297;52.206;21.016;2023-01-10T09:23:40;13.35;;;8.30;;
77260;SDS011;66297;52.206;21.016;2023-01-10T09:26:07;16.08;;;10.63;;
77260;SDS011;66297;52.206;21.016;2023-01-10T09:28:35;15.88;;;10.20;;
77260;SDS011;66297;52.206;21.016;2023-01-10T09:31:03;16.02;;;10.15;;
77260;SDS011;66297;52.206;21.016;2023-01-10T09:33:33;15.43;;;9.82;;
77260;SDS011;66297;52.206;21.016;2023-01-10T09:36:00;17.17;;;12.18;;
77260;SDS011;66297;52.206;21.016;2023-01-10T09:38:25;14.85;;;9.80;;
77260;SDS011;66297;52.206;21.016;2023-01-10T09:49:09;13.20;;;9.75;;
77260;SDS011;66297;52.206;21.016;2023-01-10T09:51:39;14.27;;;10.75;;
77260;SDS011;66297;52.206;21.016;2023-01-10T09:54:41;14.25;;;9.45;;
77260;SDS011;66297;52.206;21.016;2023-01-10T09:57:02;15.30;;;10.52;;
77260;SDS011;66297;52.206;21.016;2023-01-10T09:59:35;16.60;;;10.18;;
77260;SDS011;66297;52.206;21.016;2023-01-10T10:04:52;17.35;;;12.38;;
77260;SDS011;66297;52.206;21.016;2023-01-10T10:07:22;16.40;;;11.48;;
77260;SDS011;66297;52.206;21.016;2023-01-10T10:09:47;14.27;;;9.52;;
77260;SDS011;66297;52.206;21.016;2023-01-10T10:17:35;16.95;;;12.80;;
77260;SDS011;66297;52.206;21.016;2023-01-10T10:20:05;16.10;;;9.32;;
77260;SDS011;66297;52.206;21.016;2023-01-10T10:33:53;14.27;;;9.70;;
77260;SDS011;66297;52.206;21.016;2023-01-10T10:36:46;13.73;;;9.20;;
77260;SDS011;66297;52.206;21.016;2023-01-10T10:39:14;13.43;;;8.40;;
77260;SDS011;66297;52.206;21.016;2023-01-10T10:41:44;15.07;;;9.00;;
77260;SDS011;66297;52.206;21.016;2023-01-10T10:46:58;16.00;;;12.65;;
77260;SDS011;66297;52.206;21.016;2023-01-10T10:52:04;13.80;;;9.80;;
77260;SDS011;66297;52.206;21.016;2023-01-10T10:54:36;15.93;;;11.55;;
77260;SDS011;66297;52.206;21.016;2023-01-10T10:57:02;14.88;;;9.32;;
77260;SDS011;66297;52.206;21.016;2023-01-10T10:59:30;14.00;;;9.65;;
77260;SDS011;66297;52.206;21.016;2023-01-10T11:01:55;14.35;;;9.65;;
77260;SDS011;66297;52.206;21.016;2023-01-10T11:04:21;18.02;;;10.73;;
77260;SDS011;66297;52.206;21.016;2023-01-10T11:06:47;14.30;;;8.25;;
77260;SDS011;66297;52.206;21.016;2023-01-10T11:09:16;15.88;;;10.85;;
77260;SDS011;66297;52.206;21.016;2023-01-10T11:11:50;13.25;;;7.95;;
77260;SDS011;66297;52.206;21.016;2023-01-10T11:14:16;14.65;;;8.13;;
77260;SDS011;66297;52.206;21.016;2023-01-10T11:17:19;13.48;;;8.95;;
77260;SDS011;66297;52.206;21.016;2023-01-10T11:20:00;13.40;;;9.15;;
77260;SDS011;66297;52.206;21.016;2023-01-10T11:22:29;15.48;;;9.95;;
77260;SDS011;66297;52.206;21.016;2023-01-10T11:25:00;13.43;;;9.45;;
77260;SDS011;66297;52.206;21.016;2023-01-10T11:27:30;14.95;;;9.20;;
77260;SDS011;66297;52.206;21.016;2023-01-10T11:29:57;13.52;;;9.30;;
77260;SDS011;66297;52.206;21.016;2023-01-10T11:32:47;12.95;;;8.30;;
77260;SDS011;66297;52.206;21.016;2023-01-10T11:35:20;11.50;;;7.13;;
77260;SDS011;66297;52.206;21.016;2023-01-10T11:37:57;10.90;;;7.72;;
77260;SDS011;66297;52.206;21.016;2023-01-10T11:40:28;11.57;;;8.50;;
77260;SDS011;66297;52.206;21.016;2023-01-10T11:42:57;12.73;;;8.38;;
77260;SDS011;66297;52.206;21.016;2023-01-10T11:45:27;12.32;;;9.13;;
77260;SDS011;66297;52.206;21.016;2023-01-10T11:48:05;11.63;;;8.82;;
77260;SDS011;66297;52.206;21.016;2023-01-10T11:50:40;14.15;;;9.20;;
77260;SDS011;66297;52.206;21.016;2023-01-10T11:53:06;10.95;;;7.55;;
77260;SDS011;66297;52.206;21.016;2023-01-10T11:55:56;12.70;;;10.27;;
77260;SDS011;66297;52.206;21.016;2023-01-10T11:58:22;11.45;;;7.68;;
77260;SDS011;66297;52.206;21.016;2023-01-10T12:00:47;12.35;;;10.43;;
77260;SDS011;66297;52.206;21.016;2023-01-10T12:03:26;12.52;;;8.65;;
77260;SDS011;66297;52.206;21.016;2023-01-10T12:08:31;12.23;;;8.55;;
77260;SDS011;66297;52.206;21.016;2023-01-10T12:11:01;10.35;;;7.15;;
77260;SDS011;66297;52.206;21.016;2023-01-10T12:16:19;10.80;;;8.00;;
77260;SDS011;66297;52.206;21.016;2023-01-10T12:18:47;12.85;;;8.45;;
77260;SDS011;66297;52.206;21.016;2023-01-10T12:21:14;11.57;;;9.20;;
77260;SDS011;66297;52.206;21.016;2023-01-10T12:23:45;9.80;;;7.75;;
77260;SDS011;66297;52.206;21.016;2023-01-10T12:26:14;9.50;;;6.60;;
77260;SDS011;66297;52.206;21.016;2023-01-10T12:28:43;10.27;;;8.95;;
77260;SDS011;66297;52.206;21.016;2023-01-10T12:31:21;9.10;;;6.22;;
77260;SDS011;66297;52.206;21.016;2023-01-10T12:33:50;10.40;;;8.15;;
77260;SDS011;66297;52.206;21.016;2023-01-10T12:39:09;9.60;;;6.32;;
77260;SDS011;66297;52.206;21.016;2023-01-10T12:44:38;8.73;;;6.28;;
77260;SDS011;66297;52.206;21.016;2023-01-10T12:50:18;8.40;;;7.50;;
77260;SDS011;66297;52.206;21.016;2023-01-10T12:52:48;8.63;;;7.13;;
77260;SDS011;66297;52.206;21.016;2023-01-10T12:55:22;8.95;;;6.53;;
77260;SDS011;66297;52.206;21.016;2023-01-10T12:57:50;8.27;;;7.00;;
77260;SDS011;66297;52.206;21.016;2023-01-10T13:00:29;8.38;;;7.03;;
77260;SDS011;66297;52.206;21.016;2023-01-10T13:02:58;10.13;;;6.82;;
77260;SDS011;66297;52.206;21.016;2023-01-10T13:05:25;8.85;;;6.03;;
77260;SDS011;66297;52.206;21.016;2023-01-10T13:07:53;8.32;;;6.32;;
77260;SDS011;66297;52.206;21.016;2023-01-10T13:10:23;9.00;;;6.03;;
77260;SDS011;66297;52.206;21.016;2023-01-10T13:13:34;9.23;;;6.25;;
77260;SDS011;66297;52.206;21.016;2023-01-10T13:21:38;9.40;;;6.90;;
77260;SDS011;66297;52.206;21.016;2023-01-10T13:26:49;9.75;;;7.72;;
77260;SDS011;66297;52.206;21.016;2023-01-10T13:29:21;7.85;;;4.85;;
77260;SDS011;66297;52.206;21.016;2023-01-10T13:31:47;10.20;;;7.45;;
77260;SDS011;66297;52.206;21.016;2023-01-10T13:34:17;8.98;;;7.32;;
77260;SDS011;66297;52.206;21.016;2023-01-10T13:39:19;9.18;;;7.70;;
77260;SDS011;66297;52.206;21.016;2023-01-10T14:08:59;8.07;;;6.55;;
77260;SDS011;66297;52.206;21.016;2023-01-10T14:11:50;8.68;;;7.55;;
77260;SDS011;66297;52.206;21.016;2023-01-10T14:19:45;9.68;;;7.78;;
77260;SDS011;66297;52.206;21.016;2023-01-10T14:22:22;8.80;;;6.80;;
77260;SDS011;66297;52.206;21.016;2023-01-10T14:24:50;9.80;;;8.82;;
77260;SDS011;66297;52.206;21.016;2023-01-10T14:29:46;8.38;;;7.40;;
77260;SDS011;66297;52.206;21.016;2023-01-10T14:32:17;9.45;;;8.55;;
77260;SDS011;66297;52.206;21.016;2023-01-10T14:35:04;8.60;;;7.38;;
77260;SDS011;66297;52.206;21.016;2023-01-10T14:37:57;7.85;;;6.45;;
77260;SDS011;66297;52.206;21.016;2023-01-10T14:40:34;7.53;;;6.45;;
77260;SDS011;66297;52.206;21.016;2023-01-10T14:43:05;7.30;;;5.38;;
77260;SDS011;66297;52.206;21.016;2023-01-10T14:56:38;7.30;;;6.03;;
77260;SDS011;66297;52.206;21.016;2023-01-10T14:59:22;7.68;;;5.35;;
77260;SDS011;66297;52.206;21.016;2023-01-10T15:01:59;7.53;;;5.70;;
77260;SDS011;66297;52.206;21.016;2023-01-10T15:04:26;6.88;;;5.85;;
77260;SDS011;66297;52.206;21.016;2023-01-10T15:07:00;6.85;;;5.60;;
77260;SDS011;66297;52.206;21.016;2023-01-10T15:09:29;5.57;;;4.80;;
77260;SDS011;66297;52.206;21.016;2023-01-10T15:11:58;7.93;;;6.45;;
77260;SDS011;66297;52.206;21.016;2023-01-10T15:14:26;6.85;;;4.50;;
77260;SDS011;66297;52.206;21.016;2023-01-10T15:16:56;6.50;;;5.65;;
77260;SDS011;66297;52.206;21.016;2023-01-10T15:19:26;7.25;;;5.32;;
77260;SDS011;66297;52.206;21.016;2023-01-10T15:21:57;7.53;;;5.63;;
77260;SDS011;66297;52.206;21.016;2023-01-10T15:24:35;7.32;;;5.95;;
77260;SDS011;66297;52.206;21.016;2023-01-10T15:27:05;6.55;;;4.03;;
77260;SDS011;66297;52.206;21.016;2023-01-10T15:29:32;7.25;;;5.60;;
77260;SDS011;66297;52.206;21.016;2023-01-10T15:32:40;7.50;;;6.80;;
77260;SDS011;66297;52.206;21.016;2023-01-10T15:34:51;6.18;;;4.88;;
77260;SDS011;66297;52.206;21.016;2023-01-10T15:37:21;7.25;;;5.28;;
77260;SDS011;66297;52.206;21.016;2023-01-10T15:39:51;6.43;;;4.40;;
77260;SDS011;66297;52.206;21.016;2023-01-10T15:42:18;5.55;;;3.45;;
77260;SDS011;66297;52.206;21.016;2023-01-10T15:44:45;6.65;;;4.65;;
77260;SDS011;66297;52.206;21.016;2023-01-10T15:58:14;5.22;;;3.03;;
77260;SDS011;66297;52.206;21.016;2023-01-10T16:00:47;7.05;;;5.00;;
77260;SDS011;66297;52.206;21.016;2023-01-10T16:03:27;8.95;;;6.93;;
77260;SDS011;66297;52.206;21.016;2023-01-10T16:05:54;8.70;;;6.22;;
77260;SDS011;66297;52.206;21.016;2023-01-10T16:08:23;8.23;;;6.10;;
77260;SDS011;66297;52.206;21.016;2023-01-10T16:10:57;4.00;;;3.17;;
77260;SDS011;66297;52.206;21.016;2023-01-10T16:13:29;7.13;;;6.22;;
77260;SDS011;66297;52.206;21.016;2023-01-10T16:16:00;7.43;;;4.95;;
77260;SDS011;66297;52.206;21.016;2023-01-10T16:18:29;4.97;;;3.58;;
77260;SDS011;66297;52.206;21.016;2023-01-10T16:20:55;9.65;;;5.95;;
77260;SDS011;66297;52.206;21.016;2023-01-10T16:23:26;8.60;;;6.45;;
77260;SDS011;66297;52.206;21.016;2023-01-10T16:25:55;7.65;;;6.65;;
77260;SDS011;66297;52.206;21.016;2023-01-10T16:28:24;8.45;;;7.10;;
77260;SDS011;66297;52.206;21.016;2023-01-10T16:30:53;8.30;;;6.60;;
77260;SDS011;66297;52.206;21.016;2023-01-10T16:33:21;7.95;;;5.85;;
77260;SDS011;66297;52.206;21.016;2023-01-10T16:35:49;9.05;;;6.65;;
77260;SDS011;66297;52.206;21.016;2023-01-10T16:38:16;8.23;;;6.10;;
77260;SDS011;66297;52.206;21.016;2023-01-10T16:40:43;9.38;;;7.18;;
77260;SDS011;66297;52.206;21.016;2023-01-10T16:43:11;10.05;;;6.57;;
77260;SDS011;66297;52.206;21.016;2023-01-10T16:45:43;10.15;;;8.30;;
77260;SDS011;66297;52.206;21.016;2023-01-10T16:48:10;9.73;;;7.20;;
77260;SDS011;66297;52.206;21.016;2023-01-10T16:50:36;7.97;;;6.57;;
77260;SDS011;66297;52.206;21.016;2023-01-10T16:53:01;8.57;;;7.00;;
77260;SDS011;66297;52.206;21.016;2023-01-10T16:58:08;8.23;;;6.53;;
77260;SDS011;66297;52.206;21.016;2023-01-10T17:00:35;7.28;;;6.50;;
77260;SDS011;66297;52.206;21.016;2023-01-10T17:03:04;9.57;;;7.35;;
77260;SDS011;66297;52.206;21.016;2023-01-10T17:05:34;8.75;;;5.82;;
77260;SDS011;66297;52.206;21.016;2023-01-10T17:08:01;9.77;;;6.55;;
77260;SDS011;66297;52.206;21.016;2023-01-10T17:10:27;6.25;;;5.30;;
77260;SDS011;66297;52.206;21.016;2023-01-10T17:12:54;8.52;;;6.25;;
77260;SDS011;66297;52.206;21.016;2023-01-10T17:15:20;9.60;;;5.90;;
77260;SDS011;66297;52.206;21.016;2023-01-10T17:17:47;9.20;;;8.30;;
77260;SDS011;66297;52.206;21.016;2023-01-10T17:20:13;7.78;;;5.78;;
77260;SDS011;66297;52.206;21.016;2023-01-10T17:22:40;8.77;;;6.43;;